• Back
  •  
  • Position of Reservoir Gates
S.No.
No. of opened gates
Position of opening (In m)
Reporting Date
Reporting Time
Discharge in Cumecs
Discharge in Cusecs
Actual date and time of Gate opening
1
2
3
4
5
6
7
8
1 10 18/09/2012 8:47:23 AM 1374.74
2 10 18/09/2012 8:47:23 AM 1374.74
3 17 12/09/2012 9:26:17 AM 1461.29
4 10 13/09/2012 2:43:10 PM 1335
5 18 14/09/2012 9:14:39 AM 1647.83
6 0 15/09/2012 9:17:25 AM 481.13
7 16 23/08/2013 9:55:12 AM 3624
8 10 24/08/2013 10:28:12 AM 3930
9 10 24/08/2013 10:31:12 AM 3930
10 16 25/08/2013 11:25:31 AM 4974
11 3 31/08/2013 8:43:45 AM 1369
12 3 31/08/2013 11:43:45 AM 1369
13 5 01/09/2013 9:01:45 AM 402
14 3 02/09/2013 8:37:45 AM 391
15 2 04/09/2013 9:25:17 AM 133
16 6 0.5 17/08/2020 8:00:00 AM 630 22248.45
17 14 1 18/08/2020 12:58:00 PM 2926 103331.69
18 16 1.5 18/08/2020 1:00:00 PM 5027 177528.5
19 16 1.5 19/08/2020 8:00:00 AM 4972 175586.18
20 16 1 19/08/2020 3:00:00 PM 3271 115515.36
21 16 0.75 20/08/2020 8:00:00 AM 2460 86874.9
22 14 0.25 20/08/2020 12:15:00 PM 739 26097.78
23 14 0.25 20/08/2020 9:30:00 AM 739 26097.78
24 14 0.25 21/08/2020 8:00:00 AM 739 26097.78
25 14 1 21/08/2020 3:00:00 PM 2862 101071.53
26 14 1 22/08/2020 8:00:00 AM 2862 101071.53 14 Nos Gates opened @1.0M Each wef 21-08-2020 3.00PM
27 16 1 22/08/2020 10:00:00 AM 3271 115515.36
28 14 0.5 23/08/2020 8:00:00 AM 1439 50818.28
29 14 0.25 23/08/2020 12:00:00 PM 739 26097.78
30 14 0.25 24/08/2020 8:00:00 AM 739 26097.78 Gate opened on Dated 23/08/2020 at 12.00PM
31 14 0.25 24/08/2020 8:00:00 AM 739 26097.78
32 10 0.25 24/08/2020 10:00:00 AM 528 18646.32
33 2 0.25 25/08/2020 8:00:00 AM 106 3743.39
34 2 0.25 26/08/2020 12:00:00 AM 106 3743.39
35 2 0.25 26/08/2020 8:00:00 AM 106 3743.39
36 2 0.25 27/08/2020 12:00:00 AM 106 3743.39
37 2 0.25 27/08/2020 8:00:00 AM 106 3743.39
38 4 0.25 28/08/2020 12:00:00 AM 211 7451.46
39 4 0.5 28/08/2020 2:00:00 PM 411 14514.46
40 10 1 28/08/2020 7:00:00 PM 2044 72183.86
41 4 0.5 29/08/2020 12:00:00 AM 411 14514.46 Actual Date of Gate Opening 28.08.2020 & Time 2.00 PM
42 14 1 29/08/2020 4:00:00 PM 2862 101071.53
43 14 1 30/08/2020 12:00:00 AM 2862 101071.53 Gates opened on dated 29.08.2020 at 8.00PM
44 14 1 30/08/2020 8:00:00 AM 2862 101071.53
45 8 0.5 30/08/2020 12:00:00 PM 822 29028.93
46 6 0.25 30/08/2020 4:00:00 PM 317 11194.85
47 6 0.25 31/08/2020 12:00:00 AM 317 11194.85 Gates Opened on Dated 30.08.2020 at 4.00 PM
48 12 1.67 18/08/2016 5:30:00 PM 4040 142672.6
49 8 18/08/2016 8:00:00 AM 1672
50 0 0 21/08/2016 10:30:00 AM 0 0 closed
51 6 1 23/08/2016 9:30:00 AM 1224 43225.56
52 8 1 18/08/2016 8:00:00 AM 1672 59046.68 Gate open 17/8/2016 6:30 PM
53 6 1 24/08/2016 8:01:00 AM 1227 43331.5
54 12 2 20/08/2016 8:30:00 AM 4826 170430.19
55 16 5 19/08/2016 7:00:00 AM 15798 557906.37
56 10 2.04 20/08/2016 6:00:00 PM 4021 142001.61 Av. opening-2.0m
57 6 23/08/2016 8:00:00 AM 1227
58 8 1 17/08/2016 6:30:00 PM 1672 59046.68
59 8 18/08/2016 12:26:11 PM 1672
60 12 18/08/2016 4:34:11 PM 3647
61 16 3 20/08/2016 12:30:00 AM 9529 336516.63
62 8 21/08/2016 8:39:54 AM 2802
63 3 25/08/2016 8:22:41 AM 613
64 3 1 25/08/2016 12:00:00 AM 613 21648.09 Gate open 24/8/2016 9:30 PM
65 0 0 25/08/2016 8:30:00 AM 0 0 closed
66 6 1.6 27/08/2016 6:00:00 PM 1227 43331.5
67 6 28/08/2016 8:00:10 AM 1227
68 6 1 28/08/2016 8:00:00 AM 1227 43331.5 Gate opened at 6 pm on 27.08.2016
69 8 28/08/2016 3:56:10 PM 1635
70 8 1 28/08/2016 12:45:00 PM 1635 57740.02
71 8 29/08/2016 8:00:10 AM 1635
72 8 1 29/08/2016 12:00:00 AM 1635 57740.02 Gate open-28/8/2016 12:45
73 6 1 29/08/2016 4:30:00 PM 1227 43331.5
74 6 1 30/08/2016 12:00:00 AM 1227 43331.5 Gate open-29/8/2016 4:30 PM
75 0 0 30/08/2016 10:00:00 AM 0 0
76 3 04/09/2016 8:28:43 PM 315
77 3 05/09/2016 8:20:43 AM 315
78 6 1 22/09/2016 10:01:00 AM 1226 43296.19
79 6 22/09/2016 8:00:00 AM 1227
80 3 0.5 23/09/2016 6:15:00 AM 308 10877.02
81 3 23/09/2016 8:04:57 AM 308
82 3 1 25/09/2016 12:15:00 PM 461 16280.21
83 6 0.75 26/09/2016 12:00:00 AM 921 32525.11 Gate open 25/9/16 11:30 PM
84 6 27/09/2016 8:06:19 AM 921
85 8 28/09/2016 8:14:19 AM 1636
86 8 29/09/2016 8:50:20 AM 2487
87 8 30/09/2016 8:19:19 AM 2487
88 8 1 30/09/2016 9:00:00 AM 1672 59046.68
89 8 01/10/2016 7:39:19 AM 1672
90 6 1 01/10/2016 12:30:00 PM 1227 43331.5
91 6 03/10/2016 8:43:06 AM 1227
92 6 03/10/2016 8:55:05 AM 1227
93 6 03/10/2016 8:55:05 AM 1227
94 3 0.25 04/10/2016 6:15:00 AM 158 5579.77
95 3 09/10/2016 10:07:07 AM 627
96 3 10/10/2016 9:17:25 AM 627
97 0 0 10/10/2016 9:01:00 AM 0 0
98 2 0.1 13/09/2018 9:15:00 AM 42.19 1489.94 each gate opening 0.10 m since 13/9/2018 (9.15 Am)
99 10 0.5 09/09/2018 4:00:00 PM 1000 35315
100 10 0.5 10/09/2018 12:01:00 AM 1000 35315 gate opening since 9/9/2018 at 11am
101 10 0.75 10/09/2018 12:01:00 AM 1538 54314.47 discharge passing through gates are 54314 since 9/9/2018 at 4:40 pm
102 10 0.75 10/09/2018 10:00:00 AM 1538 54314.47
103 10 0.5 10/09/2018 2:00:00 PM 1028 36303.82 10 gates each 0.50m opening
104 2 0.1 10/09/2018 8:15:00 PM 42.19 1489.94
105 2 0.1 11/09/2018 12:01:00 AM 42.19 1489.94 each gate opening 0.10m since 10/9/2018 (8:15pm)
106 2 0.1 11/09/2018 8:00:00 AM 42.19 1489.94
107 2 0.1 12/09/2018 12:01:00 AM 42.19 1489.94
108 2 0.5 12/09/2018 3:40:00 PM 210 7416.15
109 2 0.5 13/09/2018 12:01:00 AM 210 7416.15 each gate opening 0.50m since 12/9/2018 (3:40pm)
110 2 0.1 13/09/2018 9:15:00 AM 42.19 1489.94
111 2 0.1 13/09/2018 9:15:00 AM 42.19 1489.94 each gate opening is .10 m since 9.15 AM
112 2 0.1 14/09/2018 12:01:00 AM 42.19 1489.94 each gate opening 0.10m since 13/9/2018 (9:15am)
113 2 0.1 15/09/2018 12:01:00 AM 42.19 1489.94 gate opening since 13/9/2018 (9:15am)
114 0 0 15/09/2018 1:00:00 PM 0 0 all gates are closed
115 6 1 31/08/2019 7:00:00 AM 711 25108.97
116 0 0 31/08/2019 4:00:00 PM 0 0
117 8 1.25 05/09/2019 11:00:00 AM 1287 45450.4
118 0 0 05/09/2019 11:00:00 AM 0 0
119 10 1 13/09/2019 4:00:00 PM 2116 74726.54
120 10 1 14/09/2019 12:01:00 AM 2116 74726.54
121 10 2 13/09/2019 8:00:00 AM 4114 145285.91
122 10 2 13/09/2019 8:00:00 AM 4114 145285.91
123 0 0 14/09/2019 1:00:00 PM 0 0 All gates are closed
124 0 0 15/09/2019 8:00:00 AM 0 0 All Gates are closed
125 8 0.25 18/09/2019 8:00:00 PM 422 14902.93
126 10 0.25 20/09/2019 12:01:00 AM 528 18646.32
127 8 0.25 19/09/2019 8:00:00 AM 422 14902.93
128 10 1 18/09/2019 10:00:00 AM 2116 74726.54
129 10 0.25 19/09/2019 8:00:00 PM 528 18646.32
130 10 0.5 18/09/2019 2:45:00 PM 1050 37080.75
131 10 0.25 21/09/2019 12:01:00 AM 528 18646.32 gate opening since 20/9/2019at8:0pm
132 10 0.25 21/09/2019 9:00:00 AM 527 18611
133 6 0.25 21/09/2019 12:00:00 PM 317 11194.85
134 3 0.16 22/09/2019 12:01:00 AM 101.2 3574.94 gate opening since 21/9/2019at8pm
135 3 0.16 21/09/2019 10:00:00 PM 101.2 3574.94
136 3 0.5 25/09/2019 12:11:00 AM 315 11124.22
137 3 0.5 26/09/2019 12:01:00 AM 315 11124.22
138 3 0.5 24/09/2019 12:01:00 AM 315 11124.22 gate opening since 24/9/2019 at8:0pm
139 3 0.5 24/09/2019 8:00:00 PM 315 11124.22
140 3 0.25 24/09/2019 8:00:00 AM 158.2 5587.19
141 3 0.25 24/09/2019 4:00:00 PM 158.2 5587.19
142 6 1.5 28/09/2019 3:40:00 AM 1856 65544.64
143 10 2 28/09/2019 7:10:00 AM 4115 145321.22
144 3 1.5 26/09/2019 10:00:00 AM 933 32948.89
145 3 0.5 25/09/2019 8:00:00 PM 315 11124.22
146 8 1.5 26/09/2019 4:00:00 PM 2487 87828.4
147 8 1.5 27/09/2019 12:01:00 AM 2487 87828.4
148 3 1 27/09/2019 8:00:00 AM 627 22142.5
149 6 1 27/09/2019 4:00:00 PM 1254 44285.01
150 6 1.5 27/09/2019 8:00:00 PM 1856 65544.64
151 6 0.5 28/09/2019 4:00:00 PM 630.5 22266.11
152 6 0.5 29/09/2019 12:01:00 AM 630.4 22262.58
153 10 0.5 29/09/2019 8:00:00 AM 2035 71866.02
154 10 1.5 29/09/2019 4:00:00 PM 3109 109794.33
155 10 1.75 30/09/2019 6:00:00 AM 3615 127663.72
156 10 1.5 30/09/2019 12:01:00 AM 3109 109794.33
157 10 0.5 01/10/2019 8:00:00 AM 1051 37116.06
158 10 1.5 30/09/2019 8:00:00 PM 3108 109759.02
159 10 1.5 30/09/2019 8:00:00 PM 3108 109759.02
160 10 1 01/10/2019 4:00:00 PM 2096 74020.24
161 3 0.5 02/10/2019 9:00:00 AM 315 11124.22
162 3 0.5 02/10/2019 4:00:00 PM 315.3 11134.82
163 3 0.5 03/10/2019 12:01:00 AM 315.3 11134.82 gate opening since 2/10/2019at8pm
164 3 0.5 03/10/2019 8:15:00 AM 315.3 11134.82
165 3 1 03/10/2019 8:00:00 PM 627 22142.5
166 3 1 04/10/2019 12:01:00 AM 627 22142.5
167 3 0.5 04/10/2019 8:00:00 AM 315.2 11132.35
168 3 0.25 04/10/2019 12:00:00 PM 158.2 5586.83
169 0 0 05/10/2019 4:00:00 PM 0 0 All gates are closed
170 3 0.25 05/10/2019 12:00:00 PM 158 5579.77
Powered by © Water Resources Department (MP). All Rights Reserved.